Time;durP1;ratioP1;P1;durP2;ratioP2;P2;SDS_P1;SDS_P2;PMS_P1;PMS_P2;Temp;Humidity;BMP_temperature;BMP_pressure;BME280_temperature;BME280_humidity;BME280_pressure;Samples;Min_cycle;Max_cycle;Signal;HPM_P1;HPM_P2
2021/09/17 00:00:52;;;;;;;;;;;;;;;29.87;36.73;99614.09;4482228;32;34583;-85
2021/09/17 00:03:21;;;;;;;;;;;;;;;29.73;36.91;99614.78;4469109;31;36150;-86
2021/09/17 00:05:48;;;;;;;;;;;;;;;29.90;36.57;99620.94;4468808;32;33810;-84
2021/09/17 00:08:16;;;;;;;;;;;;;;;30.08;36.17;99612.63;4481466;32;34751;-85
2021/09/17 00:10:44;;;;;;;;;;;;;;;29.78;36.80;99618.66;4481873;32;34133;-85
2021/09/17 00:13:12;;;;;;;;;;;;;;;30.03;36.39;99613.16;4468919;32;34178;-85
2021/09/17 00:15:39;;;;;;;;;;;;;;;30.34;35.77;99606.06;4482768;32;34181;-86
2021/09/17 00:18:06;;;;;;;;;;;;;;;30.29;35.90;99602.06;4468909;32;33675;-86
2021/09/17 00:20:35;;;;;;;;;;;;;;;29.89;36.71;99604.00;4468874;32;34665;-85
2021/09/17 00:23:02;;;;;;;;;;;;;;;29.83;36.99;99602.81;4468931;32;34922;-86
2021/09/17 00:25:30;;;;;;;;;;;;;;;30.04;36.66;99609.47;4469214;32;33463;-85
2021/09/17 00:27:57;;;;;;;;;;;;;;;30.29;36.22;99591.31;4482393;32;34156;-86
2021/09/17 00:30:28;;;;;;;;;;;;;;;29.77;37.29;99590.13;4482364;32;35077;-84
2021/09/17 00:32:56;;;;;;;;;;;;;;;29.98;36.82;99583.31;4481627;32;33848;-85
2021/09/17 00:35:23;;;;;;;;;;;;;;;30.15;36.60;99582.19;4468302;32;31268;-86
2021/09/17 00:37:51;;;;;;;;;;;;;;;30.43;35.99;99592.38;4468633;32;36025;-86
2021/09/17 00:40:18;;;;;;;;;;;;;;;30.04;36.59;99589.84;4468601;32;36334;-85
2021/09/17 00:42:45;;;;;;;;;;;;;;;30.01;36.73;99585.66;4468051;32;34179;-85
2021/09/17 00:45:13;;;;;;;;;;;;;;;29.71;37.28;99588.13;4481072;32;33595;-85
2021/09/17 00:47:42;;;;;;;;;;;;;;;30.08;36.39;99583.09;4455823;32;33541;-86
2021/09/17 00:50:11;;;;;;;;;;;;;;;30.10;36.57;99578.34;4468887;32;34078;-85
2021/09/17 00:52:38;;;;;;;;;;;;;;;30.50;35.70;99573.72;4468331;32;34661;-85
2021/09/17 00:55:06;;;;;;;;;;;;;;;30.31;35.99;99572.31;4468448;32;33045;-85
2021/09/17 00:57:34;;;;;;;;;;;;;;;30.38;35.95;99569.75;4468610;32;34581;-85
2021/09/17 01:00:05;;;;;;;;;;;;;;;29.77;37.28;99570.47;4468271;32;35094;-86
2021/09/17 01:02:33;;;;;;;;;;;;;;;29.75;37.20;99570.66;4466443;32;34862;-85
2021/09/17 01:05:03;;;;;;;;;;;;;;;29.93;36.83;99566.87;4455692;32;33988;-86
2021/09/17 01:07:30;;;;;;;;;;;;;;;29.64;37.34;99555.78;4481359;32;34138;-85
2021/09/17 01:09:58;;;;;;;;;;;;;;;29.65;37.32;99553.94;4468381;32;34751;-85
2021/09/17 01:12:25;;;;;;;;;;;;;;;29.44;37.84;99550.00;4467954;32;33912;-85
2021/09/17 01:14:54;;;;;;;;;;;;;;;29.49;37.73;99544.13;4468420;32;33650;-86
2021/09/17 01:17:29;;;;;;;;;;;;;;;29.59;37.40;99539.38;4467862;32;36019;-85
2021/09/17 01:19:56;;;;;;;;;;;;;;;29.51;37.52;99534.03;4480553;32;35062;-85
2021/09/17 01:22:24;;;;;;;;;;;;;;;29.58;37.52;99534.19;4468407;32;32928;-86
2021/09/17 01:24:51;;;;;;;;;;;;;;;29.26;38.17;99539.50;4481468;32;33531;-85
2021/09/17 01:27:18;;;;;;;;;;;;;;;29.39;37.91;99543.50;4481525;32;34528;-85
2021/09/17 01:29:46;;;;;;;;;;;;;;;29.23;38.24;99539.84;4467499;32;35089;-84
2021/09/17 01:32:15;;;;;;;;;;;;;;;29.34;38.12;99538.66;4468338;32;34125;-85
2021/09/17 01:34:42;;;;;;;;;;;;;;;29.30;38.18;99532.81;4480325;31;33879;-86
2021/09/17 01:37:10;;;;;;;;;;;;;;;29.68;37.78;99529.44;4467825;32;34066;-86
2021/09/17 01:39:37;;;;;;;;;;;;;;;30.07;36.92;99528.50;4468417;32;34947;-86
2021/09/17 01:42:05;;;;;;;;;;;;;;;29.87;37.17;99521.97;4468176;32;34574;-85
2021/09/17 01:44:36;;;;;;;;;;;;;;;30.04;36.87;99520.00;4480485;32;33591;-86
2021/09/17 01:47:04;;;;;;;;;;;;;;;29.77;37.45;99516.78;4481057;32;35114;-84
2021/09/17 01:49:31;;;;;;;;;;;;;;;28.79;39.41;99508.16;4468150;32;34367;-86
2021/09/17 01:51:59;;;;;;;;;;;;;;;28.82;39.34;99503.25;4468404;32;33184;-85
2021/09/17 01:54:26;;;;;;;;;;;;;;;29.23;38.47;99502.28;4480803;32;34058;-86
2021/09/17 01:56:54;;;;;;;;;;;;;;;27.75;42.28;99486.34;4467902;32;33413;-85
2021/09/17 01:59:23;;;;;;;;;;;;;;;27.57;43.05;99489.19;4480756;32;35323;-85
2021/09/17 02:01:51;;;;;;;;;;;;;;;27.37;43.70;99492.13;4481099;32;34175;-85
2021/09/17 02:04:19;;;;;;;;;;;;;;;27.06;44.41;99484.63;4481050;32;32025;-85
2021/09/17 02:06:46;;;;;;;;;;;;;;;27.56;42.94;99477.66;4468076;32;34343;-85
2021/09/17 02:09:13;;;;;;;;;;;;;;;28.14;41.44;99481.22;4468097;32;35298;-85
2021/09/17 02:11:41;;;;;;;;;;;;;;;28.22;41.17;99477.72;4468256;32;34915;-84
2021/09/17 02:14:08;;;;;;;;;;;;;;;27.40;43.43;99470.41;4468056;32;33627;-86
2021/09/17 02:16:37;;;;;;;;;;;;;;;27.54;43.12;99468.94;4467706;32;33113;-86
2021/09/17 02:19:07;;;;;;;;;;;;;;;27.79;42.41;99460.97;4468151;32;35819;-85
2021/09/17 02:21:34;;;;;;;;;;;;;;;27.30;43.39;99459.81;4467938;32;34276;-85
2021/09/17 02:24:02;;;;;;;;;;;;;;;27.63;42.53;99462.59;4480927;32;32995;-85
2021/09/17 02:26:29;;;;;;;;;;;;;;;27.79;42.08;99452.94;4480760;32;34260;-86
2021/09/17 02:28:57;;;;;;;;;;;;;;;28.20;41.01;99446.75;4467634;32;34736;-86
2021/09/17 02:31:24;;;;;;;;;;;;;;;28.36;40.66;99444.06;4480527;32;34110;-85
2021/09/17 02:33:52;;;;;;;;;;;;;;;28.12;40.77;99442.22;4467488;32;34160;-85
2021/09/17 02:36:20;;;;;;;;;;;;;;;28.07;40.99;99441.94;4467739;32;33322;-85
2021/09/17 02:38:48;;;;;;;;;;;;;;;28.62;39.61;99435.78;4480566;32;34333;-86
2021/09/17 02:41:15;;;;;;;;;;;;;;;28.48;39.75;99431.16;4467200;31;35268;-86
2021/09/17 02:43:44;;;;;;;;;;;;;;;27.70;41.46;99433.34;4480721;32;33512;-85
2021/09/17 02:46:11;;;;;;;;;;;;;;;27.93;41.00;99430.81;4467672;32;34849;-86
2021/09/17 02:48:39;;;;;;;;;;;;;;;28.59;39.66;99433.44;4480712;32;34273;-86
2021/09/17 02:51:06;;;;;;;;;;;;;;;28.49;39.96;99432.81;4467337;32;35357;-85
2021/09/17 02:53:33;;;;;;;;;;;;;;;28.71;39.56;99430.44;4455064;32;32899;-85
2021/09/17 02:56:01;;;;;;;;;;;;;;;28.69;39.64;99443.16;4467039;32;32981;-85
2021/09/17 02:58:28;;;;;;;;;;;;;;;28.63;39.79;99442.00;4469598;32;35306;-88
2021/09/17 03:00:56;;;;;;;;;;;;;;;28.74;39.61;99438.13;4481984;32;35046;-87
2021/09/17 03:03:24;;;;;;;;;;;;;;;28.72;39.67;99438.31;4482428;32;34682;-87
2021/09/17 03:05:51;;;;;;;;;;;;;;;28.62;39.82;99430.41;4482599;32;33961;-87
2021/09/17 03:08:18;;;;;;;;;;;;;;;28.59;39.73;99436.13;4469626;32;35596;-88
2021/09/17 03:10:46;;;;;;;;;;;;;;;27.98;40.88;99438.38;4468936;32;35037;-88
2021/09/17 03:13:13;;;;;;;;;;;;;;;28.88;39.29;99437.41;4457131;32;33080;-88
2021/09/17 03:15:40;;;;;;;;;;;;;;;28.42;41.29;99435.31;4483303;32;34969;-84
2021/09/17 03:18:08;;;;;;;;;;;;;;;28.14;42.93;99432.19;4470040;32;35587;-85
2021/09/17 03:20:35;;;;;;;;;;;;;;;28.52;42.54;99426.25;4483364;32;34703;-87
2021/09/17 03:23:02;;;;;;;;;;;;;;;28.45;42.89;99431.47;4483314;32;33450;-85
2021/09/17 03:25:30;;;;;;;;;;;;;;;28.58;42.79;99434.44;4456733;32;32914;-85
2021/09/17 03:27:57;;;;;;;;;;;;;;;28.56;43.18;99428.44;4482476;32;34358;-86
2021/09/17 03:30:24;;;;;;;;;;;;;;;28.26;43.23;99422.81;4482374;32;35033;-88
2021/09/17 03:32:52;;;;;;;;;;;;;;;28.03;43.54;99419.13;4469212;32;32159;-85
2021/09/17 03:35:21;;;;;;;;;;;;;;;27.95;44.62;99420.81;4481944;31;34321;-85
2021/09/17 03:37:48;;;;;;;;;;;;;;;28.22;44.26;99415.28;4469299;32;34475;-85
2021/09/17 03:40:16;;;;;;;;;;;;;;;28.15;45.05;99418.62;4469046;32;34090;-88
2021/09/17 03:42:43;;;;;;;;;;;;;;;28.22;44.77;99412.63;4469381;32;33628;-86
2021/09/17 03:45:10;;;;;;;;;;;;;;;28.06;45.38;99405.44;4469420;32;33510;-84
2021/09/17 03:47:38;;;;;;;;;;;;;;;28.20;45.28;99394.03;4469293;32;34058;-85
2021/09/17 03:50:06;;;;;;;;;;;;;;;27.43;47.35;99397.88;4468868;32;34123;-85
2021/09/17 03:52:33;;;;;;;;;;;;;;;28.38;44.76;99401.03;4482007;32;33519;-86
2021/09/17 03:55:02;;;;;;;;;;;;;;;27.88;46.01;99398.41;4469537;32;34631;-85
2021/09/17 03:57:29;;;;;;;;;;;;;;;28.01;45.86;99400.56;4482333;32;33927;-85
2021/09/17 03:59:56;;;;;;;;;;;;;;;28.20;45.52;99407.44;4482070;32;34485;-85
2021/09/17 04:02:25;;;;;;;;;;;;;;;28.08;45.84;99401.59;4482710;32;33391;-85
2021/09/17 04:04:53;;;;;;;;;;;;;;;28.23;45.79;99404.41;4469181;32;35834;-86
2021/09/17 04:07:20;;;;;;;;;;;;;;;28.26;45.80;99401.38;4481934;32;35057;-84
2021/09/17 04:09:48;;;;;;;;;;;;;;;28.24;46.17;99400.72;4469254;32;34451;-85
2021/09/17 04:12:16;;;;;;;;;;;;;;;27.84;47.43;99397.03;4469350;32;32393;-85
2021/09/17 04:14:43;;;;;;;;;;;;;;;28.31;45.98;99396.34;4469541;32;35094;-85
2021/09/17 04:17:10;;;;;;;;;;;;;;;28.64;45.13;99411.50;4482501;32;34400;-87
2021/09/17 04:19:38;;;;;;;;;;;;;;;28.49;45.34;99406.00;4469447;32;34411;-86
2021/09/17 04:22:05;;;;;;;;;;;;;;;28.39;45.69;99413.41;4482888;32;33818;-87
2021/09/17 04:24:32;;;;;;;;;;;;;;;28.05;47.06;99417.16;4469205;32;34618;-87
2021/09/17 04:27:00;;;;;;;;;;;;;;;27.80;47.41;99412.63;4456521;32;36087;-87
2021/09/17 04:29:27;;;;;;;;;;;;;;;27.88;47.36;99410.94;4469673;32;33387;-86
2021/09/17 04:31:54;;;;;;;;;;;;;;;26.68;50.36;99409.25;4469431;32;33778;-86
2021/09/17 04:34:22;;;;;;;;;;;;;;;27.81;47.48;99408.09;4469206;31;34610;-86
2021/09/17 04:36:49;;;;;;;;;;;;;;;28.10;47.15;99401.41;4469584;32;33566;-86
2021/09/17 04:39:17;;;;;;;;;;;;;;;27.85;47.85;99406.75;4469281;32;35742;-86
2021/09/17 04:41:44;;;;;;;;;;;;;;;28.13;47.20;99418.00;4481764;32;33841;-86
2021/09/17 04:44:11;;;;;;;;;;;;;;;27.36;49.11;99412.03;4481910;32;35022;-86
2021/09/17 04:46:38;;;;;;;;;;;;;;;27.64;48.43;99408.09;4469182;32;34114;-86
2021/09/17 04:49:06;;;;;;;;;;;;;;;27.25;49.28;99421.19;4468375;32;35570;-86
2021/09/17 04:51:33;;;;;;;;;;;;;;;27.25;49.46;99422.03;4482354;32;33463;-86
2021/09/17 04:54:00;;;;;;;;;;;;;;;27.58;48.45;99434.66;4469045;32;34733;-86
2021/09/17 04:56:28;;;;;;;;;;;;;;;27.71;48.42;99426.12;4468615;32;34736;-85
2021/09/17 04:58:55;;;;;;;;;;;;;;;27.60;48.79;99425.47;4469162;32;34708;-85
2021/09/17 05:01:23;;;;;;;;;;;;;;;27.47;49.43;99423.28;4469472;32;34669;-86
2021/09/17 05:03:51;;;;;;;;;;;;;;;27.46;49.47;99428.81;4483719;32;33871;-85
2021/09/17 05:06:18;;;;;;;;;;;;;;;27.31;49.88;99437.44;4482280;32;34476;-86
2021/09/17 05:08:45;;;;;;;;;;;;;;;27.39;49.70;99438.47;4468792;32;35737;-86
2021/09/17 05:11:13;;;;;;;;;;;;;;;27.42;49.53;99438.16;4469449;32;34170;-87
2021/09/17 05:13:40;;;;;;;;;;;;;;;27.06;50.92;99441.88;4470013;32;34269;-86
2021/09/17 05:16:08;;;;;;;;;;;;;;;27.02;51.10;99442.31;4482563;32;34389;-87
2021/09/17 05:18:35;;;;;;;;;;;;;;;27.13;50.87;99447.41;4456706;32;35033;-85
2021/09/17 05:21:02;;;;;;;;;;;;;;;27.36;50.42;99447.63;4468588;32;33864;-86
2021/09/17 05:23:33;;;;;;;;;;;;;;;27.69;49.88;99452.25;4470409;32;34840;-87
2021/09/17 05:26:02;;;;;;;;;;;;;;;27.95;48.92;99458.28;4483971;32;34471;-85
2021/09/17 05:28:30;;;;;;;;;;;;;;;28.09;48.69;99453.28;4470067;32;34419;-86
2021/09/17 05:30:57;;;;;;;;;;;;;;;28.19;48.63;99455.78;4482552;32;33920;-87
2021/09/17 05:33:25;;;;;;;;;;;;;;;27.86;49.38;99466.50;4469563;32;34953;-87
2021/09/17 05:35:52;;;;;;;;;;;;;;;27.88;49.06;99465.31;4469308;32;34224;-85
2021/09/17 05:38:19;;;;;;;;;;;;;;;28.21;48.62;99465.31;4456735;32;35481;-85
2021/09/17 05:40:47;;;;;;;;;;;;;;;28.26;48.68;99459.47;4469292;32;34870;-86
2021/09/17 05:43:14;;;;;;;;;;;;;;;27.50;50.38;99472.94;4481960;32;32626;-86
2021/09/17 05:45:41;;;;;;;;;;;;;;;27.95;49.19;99463.62;4481707;32;33556;-86
2021/09/17 05:48:09;;;;;;;;;;;;;;;28.17;48.39;99464.00;4482185;32;33713;-84
2021/09/17 05:50:37;;;;;;;;;;;;;;;28.05;48.37;99462.66;4469948;32;34401;-86
2021/09/17 05:53:05;;;;;;;;;;;;;;;27.98;47.90;99463.28;4483042;32;34013;-86
2021/09/17 05:55:32;;;;;;;;;;;;;;;28.13;48.08;99470.69;4472783;32;34611;-85
2021/09/17 05:58:00;;;;;;;;;;;;;;;27.84;48.87;99471.97;4469135;32;34288;-84
2021/09/17 06:00:27;;;;;;;;;;;;;;;28.26;47.59;99467.50;4468657;32;33753;-84
2021/09/17 06:02:55;;;;;;;;;;;;;;;28.21;47.14;99473.34;4455897;32;36143;-85
2021/09/17 06:05:23;;;;;;;;;;;;;;;27.84;48.45;99466.63;4468726;32;35399;-85
2021/09/17 06:07:50;;;;;;;;;;;;;;;27.99;48.07;99472.19;4483461;32;35072;-85
2021/09/17 06:10:18;;;;;;;;;;;;;;;27.83;48.34;99471.16;4469372;32;33378;-85
2021/09/17 06:12:45;;;;;;;;;;;;;;;28.06;47.73;99470.53;4443217;32;35067;-85
2021/09/17 06:15:13;;;;;;;;;;;;;;;28.07;47.30;99468.69;4455777;32;36213;-85
2021/09/17 06:17:41;;;;;;;;;;;;;;;28.02;47.53;99471.03;4442998;32;34404;-86
2021/09/17 06:20:09;;;;;;;;;;;;;;;27.88;48.37;99459.97;4443265;32;33689;-85
2021/09/17 06:22:39;;;;;;;;;;;;;;;27.81;48.13;99475.84;4443105;32;34797;-85
2021/09/17 06:25:07;;;;;;;;;;;;;;;27.71;47.68;99472.50;4453438;32;35872;-85
2021/09/17 06:27:34;;;;;;;;;;;;;;;27.81;48.49;99470.50;4448243;32;33819;-85
2021/09/17 06:30:03;;;;;;;;;;;;;;;27.58;48.91;99464.94;4455116;32;32702;-85
2021/09/17 06:32:31;;;;;;;;;;;;;;;27.61;48.41;99477.16;4443186;32;34348;-85
2021/09/17 06:34:58;;;;;;;;;;;;;;;27.85;48.10;99479.00;4442895;32;33277;-87
2021/09/17 06:37:26;;;;;;;;;;;;;;;27.97;47.90;99471.50;4456475;32;34094;-85
2021/09/17 06:39:54;;;;;;;;;;;;;;;28.02;47.17;99485.25;4456407;32;33160;-85
2021/09/17 06:42:22;;;;;;;;;;;;;;;27.23;49.73;99488.22;4481425;32;33299;-86
2021/09/17 06:44:50;;;;;;;;;;;;;;;27.44;48.84;99493.16;4469079;32;34296;-84
2021/09/17 06:47:18;;;;;;;;;;;;;;;27.42;49.24;99497.00;4468474;32;34612;-84
2021/09/17 06:49:46;;;;;;;;;;;;;;;27.50;48.88;99486.31;4483242;32;33627;-85
2021/09/17 06:52:13;;;;;;;;;;;;;;;27.59;49.34;99485.34;4468564;32;34195;-86
2021/09/17 06:54:41;;;;;;;;;;;;;;;27.70;49.21;99494.06;4469189;32;34413;-86
2021/09/17 06:57:08;;;;;;;;;;;;;;;27.48;49.78;99485.63;4468082;32;34443;-85
2021/09/17 06:59:42;;;;;;;;;;;;;;;27.73;48.96;99493.72;4483054;32;33117;-85
2021/09/17 07:02:10;;;;;;;;;;;;;;;27.85;49.00;99496.94;4468531;32;35545;-85
2021/09/17 07:04:40;;;;;;;;;;;;;;;27.86;48.92;99499.44;4468917;32;33969;-86
2021/09/17 07:07:08;;;;;;;;;;;;;;;27.70;49.38;99502.09;4483563;32;34388;-85
2021/09/17 07:09:35;;;;;;;;;;;;;;;27.73;48.33;99504.44;4462286;32;33171;-85
2021/09/17 07:12:03;;;;;;;;;;;;;;;27.27;49.33;99510.09;4469818;32;34735;-86
2021/09/17 07:14:31;;;;;;;;;;;;;;;27.24;49.85;99511.25;4467408;32;33457;-86
2021/09/17 07:16:58;;;;;;;;;;;;;;;26.51;51.65;99520.53;4468108;32;33070;-85
2021/09/17 07:19:26;;;;;;;;;;;;;;;26.98;50.43;99525.53;4465620;32;34638;-85
2021/09/17 07:21:53;;;;;;;;;;;;;;;26.63;51.89;99526.44;4467539;32;34327;-86
2021/09/17 07:24:21;;;;;;;;;;;;;;;25.90;53.83;99525.66;4480947;32;33892;-86
2021/09/17 07:26:49;;;;;;;;;;;;;;;26.54;52.22;99535.41;4460525;32;34155;-85
2021/09/17 07:29:16;;;;;;;;;;;;;;;26.02;53.14;99536.97;4461375;32;33815;-84
2021/09/17 07:31:44;;;;;;;;;;;;;;;25.80;54.07;99540.91;4455311;32;34846;-84
2021/09/17 07:34:11;;;;;;;;;;;;;;;26.00;53.83;99545.09;4468720;32;33063;-84
2021/09/17 07:36:38;;;;;;;;;;;;;;;26.37;52.32;99548.63;4467964;32;34193;-85
2021/09/17 07:39:06;;;;;;;;;;;;;;;26.43;51.50;99550.69;4480905;32;32657;-85
2021/09/17 07:41:35;;;;;;;;;;;;;;;26.05;52.39;99563.38;4481056;32;34614;-85
2021/09/17 07:44:03;;;;;;;;;;;;;;;25.98;51.87;99564.91;4469641;32;34526;-86
2021/09/17 07:46:33;;;;;;;;;;;;;;;26.41;50.26;99563.34;4470924;32;33211;-86
2021/09/17 07:49:01;;;;;;;;;;;;;;;26.09;49.75;99564.75;4470162;32;34003;-85
2021/09/17 07:51:28;;;;;;;;;;;;;;;25.78;51.03;99562.41;4457574;32;34732;-86
2021/09/17 07:53:57;;;;;;;;;;;;;;;25.64;52.16;99569.06;4470256;32;35954;-86
2021/09/17 07:56:24;;;;;;;;;;;;;;;25.58;53.22;99575.03;4483240;32;33717;-85
2021/09/17 07:58:51;;;;;;;;;;;;;;;25.30;53.68;99564.31;4470171;32;33944;-86
2021/09/17 08:01:19;;;;;;;;;;;;;;;25.14;54.31;99564.06;4474794;32;34923;-86
2021/09/17 08:03:47;;;;;;;;;;;;;;;25.97;52.27;99566.75;4482307;32;35008;-86
2021/09/17 08:06:15;;;;;;;;;;;;;;;25.22;53.90;99566.03;4484221;32;35032;-86
2021/09/17 08:08:42;;;;;;;;;;;;;;;25.43;53.85;99568.50;4470114;31;33216;-86
2021/09/17 08:11:10;;;;;;;;;;;;;;;26.14;51.66;99569.66;4483311;32;33821;-86
2021/09/17 08:13:37;;;;;;;;;;;;;;;25.31;53.69;99573.97;4483494;32;34412;-86
2021/09/17 08:16:04;;;;;;;;;;;;;;;26.10;51.57;99571.75;4484967;32;33739;-85
2021/09/17 08:18:32;;;;;;;;;;;;;;;26.13;51.45;99570.62;4469663;32;33641;-86
2021/09/17 08:21:00;;;;;;;;;;;;;;;25.00;53.86;99579.56;4484803;32;35105;-86
2021/09/17 08:23:28;;;;;;;;;;;;;;;25.77;51.56;99581.25;4486047;32;35455;-86
2021/09/17 08:25:55;;;;;;;;;;;;;;;24.34;55.62;99578.50;4483261;32;35302;-85
2021/09/17 08:28:23;;;;;;;;;;;;;;;25.12;53.26;99576.72;4470195;32;33822;-86
2021/09/17 08:30:51;;;;;;;;;;;;;;;24.91;53.98;99571.59;4483029;32;34686;-86
2021/09/17 08:33:40;;;;;;;;;;;;;;;25.58;52.02;99576.84;4473089;32;35311;-85
2021/09/17 08:36:27;;;;;;;;;;;;;;;25.86;50.46;99572.34;4482224;31;33390;-86
2021/09/17 08:39:15;;;;;;;;;;;;;;;25.44;50.99;99567.50;4472389;32;32129;-85
2021/09/17 08:41:44;;;;;;;;;;;;;;;25.76;50.93;99571.53;4469944;32;35604;-85
2021/09/17 08:44:11;;;;;;;;;;;;;;;25.21;51.23;99577.66;4469987;32;34875;-85
2021/09/17 08:46:43;;;;;;;;;;;;;;;25.29;50.97;99583.13;4470678;32;34895;-86
2021/09/17 08:49:12;;;;;;;;;;;;;;;25.45;50.53;99580.69;4483153;32;32073;-85
2021/09/17 08:51:43;;;;;;;;;;;;;;;24.86;51.40;99577.34;4470629;32;34309;-85
2021/09/17 08:54:11;;;;;;;;;;;;;;;25.79;49.28;99580.09;4482717;32;35610;-86
2021/09/17 08:56:38;;;;;;;;;;;;;;;25.59;50.39;99581.19;4470069;32;34710;-86
2021/09/17 08:59:06;;;;;;;;;;;;;;;25.76;49.75;99580.38;4470172;32;34623;-86
2021/09/17 09:01:35;;;;;;;;;;;;;;;25.54;51.15;99581.66;4482518;32;34900;-87
2021/09/17 09:04:07;;;;;;;;;;;;;;;25.84;50.38;99583.13;4478736;32;34305;-84
2021/09/17 09:06:37;;;;;;;;;;;;;;;25.70;50.34;99574.81;4471685;32;34512;-86
2021/09/17 09:09:09;;;;;;;;;;;;;;;25.52;49.61;99572.94;4473924;32;33997;-85
2021/09/17 09:11:37;;;;;;;;;;;;;;;25.59;50.35;99567.84;4454496;32;36007;-84
2021/09/17 09:14:05;;;;;;;;;;;;;;;24.58;51.68;99566.56;4474634;32;34002;-85
2021/09/17 09:16:33;;;;;;;;;;;;;;;24.99;50.91;99558.37;4476941;32;34102;-85
2021/09/17 09:19:16;;;;;;;;;;;;;;;24.92;51.05;99565.28;4476492;32;32923;-85
2021/09/17 09:21:45;;;;;;;;;;;;;;;25.92;48.91;99561.03;4471003;32;34578;-85
2021/09/17 09:24:18;;;;;;;;;;;;;;;25.92;48.55;99557.53;4461458;32;34601;-85
2021/09/17 09:26:45;;;;;;;;;;;;;;;25.96;47.79;99553.56;4461419;32;35294;-85
2021/09/17 09:29:26;;;;;;;;;;;;;;;25.98;47.54;99547.09;4475155;32;34269;-86
2021/09/17 09:31:55;;;;;;;;;;;;;;;25.42;49.00;99548.12;4470051;32;33264;-85
2021/09/17 09:34:24;;;;;;;;;;;;;;;25.26;48.34;99541.59;4473687;31;34509;-85
2021/09/17 09:37:04;;;;;;;;;;;;;;;25.44;48.43;99547.00;4461396;32;34223;-86
2021/09/17 09:39:51;;;;;;;;;;;;;;;25.16;48.37;99549.63;4460097;32;32859;-85
2021/09/17 09:42:20;;;;;;;;;;;;;;;25.45;48.18;99551.34;4466430;32;34542;-86
2021/09/17 09:45:07;;;;;;;;;;;;;;;24.95;49.50;99544.50;4459802;32;34782;-86
2021/09/17 09:47:36;;;;;;;;;;;;;;;25.54;48.14;99554.97;4456119;32;33149;-85
2021/09/17 09:50:16;;;;;;;;;;;;;;;25.71;48.07;99547.97;4463416;32;33396;-85
2021/09/17 09:52:44;;;;;;;;;;;;;;;25.40;48.22;99553.63;4448364;32;35945;-85
2021/09/17 09:55:12;;;;;;;;;;;;;;;25.23;47.28;99557.03;4459743;32;34402;-85
2021/09/17 09:57:40;;;;;;;;;;;;;;;24.33;49.56;99552.88;4482185;32;34675;-85
2021/09/17 10:00:09;;;;;;;;;;;;;;;25.03;48.23;99554.44;4472698;32;33802;-85
2021/09/17 10:02:38;;;;;;;;;;;;;;;25.09;47.48;99550.34;4476724;32;35161;-85
2021/09/17 10:05:09;;;;;;;;;;;;;;;25.25;46.71;99544.37;4467338;32;36017;-85
2021/09/17 10:07:36;;;;;;;;;;;;;;;25.18;47.14;99541.47;4481927;32;34947;-85
2021/09/17 10:10:04;;;;;;;;;;;;;;;25.71;45.49;99547.97;4470008;32;33492;-85
2021/09/17 10:12:35;;;;;;;;;;;;;;;24.67;47.45;99532.94;4471061;32;33840;-86
2021/09/17 10:15:04;;;;;;;;;;;;;;;25.58;45.81;99542.16;4495823;31;33852;-85
2021/09/17 10:17:35;;;;;;;;;;;;;;;25.19;45.62;99535.16;4482395;32;34536;-86
2021/09/17 10:20:04;;;;;;;;;;;;;;;25.80;44.47;99540.91;4469665;32;33312;-85
2021/09/17 10:22:39;;;;;;;;;;;;;;;25.18;45.30;99537.00;4483776;32;33951;-86
2021/09/17 10:25:08;;;;;;;;;;;;;;;25.29;45.53;99545.81;4481785;32;35590;-86
2021/09/17 10:27:37;;;;;;;;;;;;;;;24.68;46.22;99553.28;4481451;32;34350;-87
2021/09/17 10:30:06;;;;;;;;;;;;;;;25.12;45.06;99563.41;4477104;32;34275;-86
2021/09/17 10:32:36;;;;;;;;;;;;;;;24.98;45.26;99544.22;4468784;32;33550;-86
2021/09/17 10:35:15;;;;;;;;;;;;;;;25.39;44.37;99543.09;4455801;32;35214;-85
2021/09/17 10:37:55;;;;;;;;;;;;;;;24.63;46.12;99552.88;4469061;32;33355;-85
2021/09/17 10:40:42;;;;;;;;;;;;;;;24.89;45.41;99555.75;4478640;32;33046;-85
2021/09/17 10:43:09;;;;;;;;;;;;;;;24.39;46.66;99550.63;4481397;31;34721;-86
2021/09/17 10:45:40;;;;;;;;;;;;;;;24.76;45.93;99556.06;4467599;32;34863;-85
2021/09/17 10:48:08;;;;;;;;;;;;;;;25.02;45.39;99544.75;4467522;32;34790;-85
2021/09/17 10:50:42;;;;;;;;;;;;;;;25.16;45.20;99564.78;4453132;32;34344;-85
2021/09/17 10:53:11;;;;;;;;;;;;;;;24.93;45.36;99565.13;4478714;32;35012;-86
2021/09/17 10:55:45;;;;;;;;;;;;;;;25.36;43.67;99562.91;4469910;32;34414;-85
2021/09/17 10:58:27;;;;;;;;;;;;;;;25.32;44.10;99550.81;4462564;32;34172;-85
2021/09/17 11:01:05;;;;;;;;;;;;;;;25.84;43.11;99553.78;4463716;32;33872;-85
2021/09/17 11:06:21;;;;;;;;;;;;;;;25.83;42.36;99557.47;4483231;32;34388;-86
2021/09/17 11:08:53;;;;;;;;;;;;;;;25.92;41.61;99555.69;4481585;32;33752;-87
2021/09/17 11:11:21;;;;;;;;;;;;;;;26.20;41.33;99549.50;4461673;32;33989;-86
2021/09/17 11:13:48;;;;;;;;;;;;;;;26.13;41.77;99555.44;4474492;32;34173;-87
2021/09/17 11:16:18;;;;;;;;;;;;;;;26.78;40.76;99548.12;4476547;32;34493;-85
2021/09/17 11:18:51;;;;;;;;;;;;;;;27.05;40.01;99565.00;4468423;32;34270;-86
2021/09/17 11:21:18;;;;;;;;;;;;;;;26.55;40.64;99561.97;4467827;32;32183;-86
2021/09/17 11:23:49;;;;;;;;;;;;;;;26.62;40.44;99554.19;4454967;32;33469;-86
2021/09/17 11:26:18;;;;;;;;;;;;;;;27.01;39.54;99553.78;4467908;32;35705;-84
2021/09/17 11:28:56;;;;;;;;;;;;;;;26.21;41.15;99552.00;4467973;32;34812;-85
2021/09/17 11:31:26;;;;;;;;;;;;;;;26.95;39.56;99555.25;4467982;32;32626;-85
2021/09/17 11:33:56;;;;;;;;;;;;;;;26.71;39.77;99550.59;4467404;32;34215;-85
2021/09/17 11:36:33;;;;;;;;;;;;;;;27.13;39.01;99563.19;4468799;32;34176;-85
2021/09/17 11:39:20;;;;;;;;;;;;;;;27.61;38.20;99554.75;4466618;32;35449;-85
2021/09/17 11:41:54;;;;;;;;;;;;;;;27.53;38.55;99552.03;4467309;32;32961;-85
2021/09/17 11:44:28;;;;;;;;;;;;;;;27.12;39.06;99556.19;4467214;32;34751;-85
2021/09/17 11:46:56;;;;;;;;;;;;;;;27.17;38.93;99561.06;4468979;32;34244;-85
2021/09/17 11:49:26;;;;;;;;;;;;;;;27.41;37.93;99554.16;4441833;32;34321;-86
2021/09/17 11:52:00;;;;;;;;;;;;;;;27.17;38.49;99559.19;4467533;32;33484;-87
2021/09/17 11:54:28;;;;;;;;;;;;;;;27.38;37.96;99555.34;4455360;32;33792;-86
2021/09/17 11:56:58;;;;;;;;;;;;;;;26.87;38.94;99573.06;4467386;32;33907;-85
2021/09/17 11:59:33;;;;;;;;;;;;;;;27.30;38.07;99561.44;4467060;32;34470;-85
2021/09/17 12:02:09;;;;;;;;;;;;;;;27.46;37.52;99550.00;4467890;32;33349;-85
2021/09/17 12:04:37;;;;;;;;;;;;;;;27.21;38.36;99556.22;4467150;32;34314;-87
2021/09/17 12:07:04;;;;;;;;;;;;;;;27.19;38.54;99551.03;4454631;32;35199;-85
2021/09/17 12:09:32;;;;;;;;;;;;;;;27.00;38.17;99558.31;4468649;32;34449;-85
2021/09/17 12:11:59;;;;;;;;;;;;;;;27.45;36.71;99545.66;4467434;32;31849;-85
